Home > Products > Valid Products > TAF

000
FTUS43 KFGF 241300 AAB
TAFFAR
TAF AMD
KFAR 241350Z 2414/2512 15007KT 2SM -RA BR FEW006 OVC015
      TEMPO 2414/2416 5SM -RA BR BKN006
     FM241800 20008KT P6SM BKN030
     FM242000 25010KT P6SM BKN040
      TEMPO 2421/2424 5SM -TSRA BKN040CB
     FM250000 26005KT P6SM SCT040=



000
FTUS43 KFGF 241300 AAA
TAFFAR
TAF AMD
KFAR 241334Z 2414/2512 15007KT 2SM -RA BR FEW006 OVC015
      TEMPO 2414/2416 5SM -RA BR SCT015 OVC030
     FM241800 20008KT P6SM BKN030
     FM242000 25010KT P6SM BKN040
      TEMPO 2421/2424 5SM -TSRA BKN040CB
     FM250000 26005KT P6SM SCT040=



000
FTUS43 KFGF 241300 AAA
TAFGFK
TAF AMD
KGFK 241331Z 2414/2512 15010KT P6SM OVC016
      TEMPO 2414/2416 6SM -RA BR
     FM241600 16010KT P6SM -RA OVC016
     FM241800 18008KT P6SM OVC025
     FM242000 24010KT P6SM BKN040
      TEMPO 2421/2424 5SM TSRA BKN040CB
     FM250000 30008KT P6SM BKN060=



000
FTUS43 KFGF 241100
TAFFAR
TAF
KFAR 241126Z 2412/2512 15007KT P6SM OVC025
      TEMPO 2412/2416 5SM -RA BR OVC040
     FM241800 20008KT P6SM BKN030
     FM242000 25010KT P6SM BKN040
      TEMPO 2421/2424 5SM -TSRA BKN040CB
     FM250000 26005KT P6SM SCT040=



000
FTUS43 KFGF 241100
TAFGFK
TAF
KGFK 241126Z 2412/2512 15010KT P6SM OVC012
      TEMPO 2412/2416 5SM -RA BR OVC010
     FM241600 16010KT P6SM -RA OVC015
     FM241800 18008KT P6SM OVC025
     FM242000 24010KT P6SM BKN040
      TEMPO 2421/2424 5SM TSRA BKN040CB
     FM250000 30008KT P6SM BKN060=



000
FTUS43 KFGF 240500
TAFGFK
TAF
KGFK 240522Z 2406/2506 13020G30KT P6SM OVC035
      TEMPO 2406/2408 4SM -RA BKN011
     FM240800 13018KT P6SM OVC015
     FM241200 14015KT P6SM BKN015=



000
FTUS43 KFGF 240500
TAFFAR
TAF
KFAR 240522Z 2406/2506 13018KT P6SM OVC050
      TEMPO 2406/2408 5SM -RA OVC025
     FM240800 12016KT P6SM OVC025
     FM241200 12014KT P6SM BKN015=



000
FTUS43 KFGF 240200 AAA
TAFFAR
TAF AMD
KFAR 240215Z 2402/2424 13015KT P6SM -RA OVC035
      TEMPO 2402/2404 4SM -RA OVC015
     FM240400 12018G26KT P6SM OVC035
     FM240700 12012KT P6SM BKN025=



000
FTUS43 KFGF 232300
TAFFAR
TAF
KFAR 232339Z 2400/2424 12020G28KT P6SM -RA OVC035
      TEMPO 2400/2402 4SM -RA OVC015
     FM240200 12018G26KT P6SM OVC035
     FM240700 12012KT P6SM BKN025=



000
FTUS43 KFGF 232300
TAFGFK
TAF
KGFK 232339Z 2400/2424 13020G30KT P6SM -RA OVC035
      TEMPO 2400/2404 4SM -RA BKN011
     FM240400 13018KT P6SM OVC025
     FM240800 14010KT P6SM BKN025=



000
FTUS43 KFGF 232100 AAC
TAFFAR
TAF AMD
KFAR 232103Z 2321/2418 13020G30KT P6SM -RA OVC025
      TEMPO 2321/2324 4SM -RA BKN015 OVC020
     FM240000 12020G28KT P6SM -RA OVC025
     FM240700 12012KT P6SM BKN025=



000
FTUS43 KFGF 232100 AAC
TAFGFK
TAF AMD
KGFK 232102Z 2321/2418 14020G30KT P6SM -RA BKN015 OVC035
      TEMPO 2321/2324 4SM -RA BKN008
     FM240000 13018KT P6SM -RA OVC025
     FM240800 14010KT P6SM BKN025=



000
FTUS43 KFGF 232000 AAB
TAFFAR
TAF AMD
KFAR 232005Z 2320/2418 13018G24KT P6SM -RA OVC025
      TEMPO 2320/2324 4SM -RA BKN015 OVC020
     FM240000 12020G28KT P6SM -RA OVC025
     FM240700 12012KT P6SM BKN025=



000
FTUS43 KFGF 232000 AAB
TAFGFK
TAF AMD
KGFK 232003Z 2320/2418 13018KT P6SM -RA BKN015 OVC035
      TEMPO 2320/2324 4SM -RA BKN008
     FM240000 13018KT P6SM -RA OVC025
     FM240800 14010KT P6SM BKN025=



000
FTUS43 KFGF 231800 AAA
TAFFAR
TAF AMD
KFAR 231900Z 2319/2418 13022G30KT P6SM OVC040
      TEMPO 2319/2321 BKN015 OVC035
     FM232300 12020G28KT P6SM -RA OVC025
     FM240700 12012KT P6SM BKN025=



000
FTUS43 KFGF 231800 AAA
TAFGFK
TAF AMD
KGFK 231824Z 2318/2418 14018KT P6SM -RA OVC060
      TEMPO 2318/2320 BKN020
     FM232000 13022G30KT P6SM OVC040
     FM240000 13018KT P6SM -RA OVC025
     FM240800 14010KT P6SM BKN025=



000
FTUS43 KFGF 231700
TAFFAR
TAF
KFAR 231735Z 2318/2418 13022G30KT P6SM OVC060
      TEMPO 2318/2319 5SM -RA BKN015
     FM232300 12020G28KT P6SM -RA OVC025
     FM240700 12012KT P6SM BKN025=



000
FTUS43 KFGF 231700
TAFGFK
TAF
KGFK 231735Z 2318/2418 14018KT P6SM -RA OVC060
     FM232000 13022G30KT P6SM OVC040
     FM240000 13018KT P6SM -RA OVC025
     FM240800 14010KT P6SM BKN025=



000
FTUS43 KFGF 231700 AAB
TAFGFK
TAF AMD
KGFK 231701Z 2317/2412 14018KT P6SM -RA OVC060
     FM231900 13020G30KT 4SM -RA BR OVC040
     FM240000 13018KT P6SM -RA OVC025=



000
FTUS43 KFGF 231500 AAA
TAFGFK
TAF AMD
KGFK 231543Z 2316/2412 14018G26KT P6SM -RA OVC080
      TEMPO 2316/2319 3SM -RA BR OVC040
     FM231900 13020G30KT 4SM -RA BR OVC040
     FM240000 13018KT P6SM -RA OVC025=



000
FTUS43 KFGF 231400 AAA
TAFFAR
TAF AMD
KFAR 231420Z 2314/2412 14020G30KT P6SM -RA OVC080
     FM231600 13023G33KT P6SM OVC060
      TEMPO 2316/2320 -RA
     FM240000 13020KT P6SM OVC025=



000
FTUS43 KFGF 231100
TAFFAR
TAF
KFAR 231120Z 2312/2412 13018KT P6SM BKN100
      TEMPO 2312/2314 5SM -RA BR OVC040
     FM231400 13018G28KT 5SM -RA BR OVC040
     FM231800 13023G33KT P6SM OVC040
      TEMPO 2318/2321 -RA
     FM240000 13020KT P6SM OVC025=



000
FTUS43 KFGF 231100
TAFGFK
TAF
KGFK 231120Z 2312/2412 13018KT P6SM OVC200
      TEMPO 2313/2316 BKN080
     FM231600 13018KT P6SM OVC080
      TEMPO 2316/2319 3SM -RA BR OVC040
     FM231900 13020G30KT 4SM -RA BR OVC040
     FM240000 13018KT P6SM -RA OVC025=



000
FTUS43 KFGF 230500
TAFGFK
TAF
KGFK 230520Z 2306/2406 12007KT P6SM BKN250
     FM231100 14015KT P6SM BKN050
     FM231500 13022G30KT 5SM -RA OVC040
     FM240200 12017KT 4SM -RA OVC025=



000
FTUS43 KFGF 230500
TAFFAR
TAF
KFAR 230520Z 2306/2406 12010KT P6SM BKN250
     FM230900 14014KT P6SM BKN060
     FM231400 15022G31KT 5SM -RA OVC040
     FM231900 12027G35KT P6SM VCSH BKN040
     FM240200 12017KT P6SM VCSH BKN025=



000
FTUS43 KFGF 222300
TAFFAR
TAF
KFAR 222322Z 2300/2324 12010KT P6SM SCT250
     FM230900 14014KT P6SM BKN060
     FM231400 15022G31KT 5SM -RA OVC040
     FM231900 12027G35KT P6SM VCSH BKN040=



000
FTUS43 KFGF 222300
TAFGFK
TAF
KGFK 222322Z 2300/2324 12007KT P6SM SCT250
     FM231100 14015KT P6SM BKN050
     FM231500 15022G30KT 5SM -RA OVC040=



000
FTUS43 KFGF 221700
TAFFAR
TAF
KFAR 221720Z 2218/2318 VRB03KT P6SM FEW250
     FM222100 13010KT P6SM SCT250
     FM230900 14014KT P6SM BKN060
     FM231600 15022G29KT 6SM -RA OVC040=



000
FTUS43 KFGF 221700
TAFGFK
TAF
KGFK 221720Z 2218/2318 14007KT P6SM SCT250
     FM230900 15015KT P6SM BKN050
     FM231500 15022G30KT 5SM -RA OVC040=



000
FTUS43 KFGF 221100
TAFGFK
TAF
KGFK 221120Z 2212/2312 VRB06KT P6SM SCT070
      TEMPO 2212/2215 BKN080
     FM221800 15010KT P6SM SCT250=



000
FTUS43 KFGF 221100
TAFFAR
TAF
KFAR 221120Z 2212/2312 VRB06KT P6SM SCT250
     FM221800 15010KT P6SM SCT250=



000
FTUS43 KFGF 220500
TAFFAR
TAF
KFAR 220520Z 2206/2306 VRB06KT P6SM SKC
     FM222100 14011KT P6SM SCT200=



000
FTUS43 KFGF 220500
TAFGFK
TAF
KGFK 220520Z 2206/2306 VRB06KT P6SM SKC
     FM222000 14011KT P6SM SCT200=



000
FTUS43 KFGF 212300
TAFGFK
TAF
KGFK 212320Z 2200/2224 36010KT P6SM BKN050
     FM220200 VRB06KT P6SM SKC
     FM222000 14011KT P6SM SCT200=



000
FTUS43 KFGF 212300
TAFFAR
TAF
KFAR 212320Z 2200/2224 34012G20KT P6SM SCT040
     FM220200 VRB06KT P6SM SKC
     FM222100 14011KT P6SM SCT200=



000
FTUS43 KFGF 211700
TAFFAR
TAF
KFAR 211729Z 2118/2218 33018G26KT P6SM BKN030
     FM212000 34018KT P6SM SCT040
     FM220100 35008KT P6SM SKC=



000
FTUS43 KFGF 211700
TAFGFK
TAF
KGFK 211729Z 2118/2218 34017G25KT P6SM BKN035
     FM212000 35015KT P6SM SCT040
     FM220100 01007KT P6SM SKC=



000
FTUS43 KFGF 211600 AAA
TAFGFK
TAF AMD
KGFK 211616Z 2116/2212 34017G25KT P6SM BKN035
      TEMPO 2116/2117 BKN025
     FM212000 35014KT P6SM SCT040
     FM220000 01007KT P6SM SKC=



    US Dept of Commerce
    National Oceanic and Atmospheric Administration
    National Weather Service
    1325 East West Highway
    Silver Spring, MD 20910
    Page Author: NWS Internet Services Team
Disclaimer
Information Quality
Credits
Glossary
Privacy Policy
Freedom of Information Act (FOIA)
About Us
Career Opportunities